Time;durP1;ratioP1;P1;durP2;ratioP2;P2;SDS_P1;SDS_P2;PMS_P1;PMS_P2;Temp;Humidity;BMP_temperature;BMP_pressure;BME280_temperature;BME280_humidity;BME280_pressure;Samples;Min_cycle;Max_cycle;Signal;HPM_P1;HPM_P2
2024/01/17 00:00:39;;;;;;;6.32;3.10;;;1.40;99.90;;;;;;5110635;27;20418;-93
2024/01/17 00:03:06;;;;;;;4.80;2.53;;;1.30;99.90;;;;;;5124186;27;20789;-92
2024/01/17 00:05:35;;;;;;;5.72;2.88;;;1.30;99.90;;;;;;5130865;27;20401;-94
2024/01/17 00:08:07;;;;;;;5.07;2.80;;;1.20;99.90;;;;;;5127477;27;20406;-91
2024/01/17 00:10:32;;;;;;;8.75;2.67;;;1.20;99.90;;;;;;5110800;27;20842;-92
2024/01/17 00:12:58;;;;;;;7.03;3.30;;;1.00;99.90;;;;;;5111511;27;20960;-93
2024/01/17 00:15:24;;;;;;;6.07;3.30;;;1.20;99.90;;;;;;5126243;27;20449;-90
2024/01/17 00:17:49;;;;;;;7.27;3.80;;;1.10;99.90;;;;;;5131264;27;20903;-94
2024/01/17 00:20:15;;;;;;;7.03;3.70;;;1.10;99.90;;;;;;5130848;27;20516;-92
2024/01/17 00:22:41;;;;;;;7.38;3.60;;;1.10;99.90;;;;;;5131045;27;20969;-90
2024/01/17 00:25:08;;;;;;;6.97;4.10;;;1.10;99.90;;;;;;5148176;27;20533;-93
2024/01/17 00:27:36;;;;;;;7.05;4.45;;;1.10;99.90;;;;;;5130300;27;20401;-93
2024/01/17 00:30:02;;;;;;;7.85;4.85;;;1.20;99.90;;;;;;5131138;27;20397;-93
2024/01/17 00:32:27;;;;;;;7.95;4.93;;;1.30;99.90;;;;;;5130472;27;20393;-93
2024/01/17 00:34:53;;;;;;;7.95;4.60;;;1.20;99.90;;;;;;5131338;27;20420;-94
2024/01/17 00:37:19;;;;;;;7.75;5.00;;;1.10;99.90;;;;;;5129600;27;20400;-93
2024/01/17 00:39:44;;;;;;;9.05;5.05;;;1.00;99.90;;;;;;5130919;27;20424;-93
2024/01/17 00:42:10;;;;;;;10.60;5.60;;;1.00;99.90;;;;;;5130363;27;20393;-93
2024/01/17 00:44:39;;;;;;;9.20;5.18;;;1.00;99.90;;;;;;5130370;27;20407;-94
2024/01/17 00:47:05;;;;;;;8.98;5.10;;;1.00;99.90;;;;;;5130720;27;20433;-91
2024/01/17 00:49:31;;;;;;;10.00;5.65;;;1.00;99.90;;;;;;5147597;27;20393;-92
2024/01/17 00:51:57;;;;;;;9.32;5.47;;;1.00;99.90;;;;;;5148002;27;20411;-94
2024/01/17 00:54:23;;;;;;;8.55;6.03;;;1.00;99.90;;;;;;5129768;27;20488;-93
2024/01/17 00:56:48;;;;;;;8.03;5.37;;;1.10;99.90;;;;;;5130526;27;20793;-93
2024/01/17 00:59:14;;;;;;;8.20;5.63;;;1.10;99.90;;;;;;5129715;27;20405;-96
2024/01/17 01:01:40;;;;;;;11.90;6.28;;;1.00;99.90;;;;;;5130331;27;20397;-92
2024/01/17 01:04:08;;;;;;;9.33;6.07;;;1.00;99.90;;;;;;5130579;27;20484;-93
2024/01/17 01:06:34;;;;;;;10.32;5.95;;;1.10;99.90;;;;;;5147473;27;20393;-93
2024/01/17 01:08:59;;;;;;;9.63;6.00;;;0.80;99.90;;;;;;5130917;27;20473;-93
2024/01/17 01:11:29;;;;;;;8.82;5.95;;;1.00;99.90;;;;;;5130497;27;20397;-93
2024/01/17 01:13:55;;;;;;;8.68;6.03;;;1.20;99.90;;;;;;5131532;27;20873;-91
2024/01/17 01:16:21;;;;;;;10.73;6.93;;;0.90;99.90;;;;;;5130535;27;20405;-94
2024/01/17 01:18:46;;;;;;;9.70;6.28;;;0.90;99.90;;;;;;5131098;27;20417;-91
2024/01/17 01:21:12;;;;;;;9.53;6.73;;;1.00;99.90;;;;;;5130062;27;20412;-94
2024/01/17 01:23:38;;;;;;;10.77;6.40;;;1.00;99.90;;;;;;5130176;27;20534;-94
2024/01/17 01:26:03;;;;;;;10.77;6.90;;;0.90;99.90;;;;;;5130654;27;20937;-94
2024/01/17 01:28:29;;;;;;;11.00;7.53;;;0.90;99.90;;;;;;5146587;27;20489;-93
2024/01/17 01:30:55;;;;;;;9.85;6.50;;;1.00;99.90;;;;;;5130843;27;20509;-92
2024/01/17 01:33:21;;;;;;;10.53;6.20;;;0.90;99.90;;;;;;5129824;27;20400;-94
2024/01/17 01:35:49;;;;;;;10.30;6.60;;;0.90;99.90;;;;;;5123724;27;22754;-95
2024/01/17 01:38:14;;;;;;;9.25;6.10;;;0.90;99.90;;;;;;5109393;28;20479;-90
2024/01/17 01:40:41;;;;;;;10.98;6.68;;;0.90;99.90;;;;;;5110150;28;20474;-94
2024/01/17 01:43:26;;;;;;;8.48;6.10;;;0.80;99.90;;;;;;5110658;28;20399;-92
2024/01/17 01:45:58;;;;;;;11.25;7.20;;;0.90;99.90;;;;;;5109291;27;20897;-92
2024/01/17 01:48:24;;;;;;;12.27;6.82;;;0.80;99.90;;;;;;5112548;27;20418;-93
2024/01/17 01:50:50;;;;;;;11.07;6.70;;;0.90;99.90;;;;;;5103220;27;20428;-91
2024/01/17 01:53:16;;;;;;;10.68;6.60;;;0.90;99.90;;;;;;5135546;27;20389;-91
2024/01/17 01:55:45;;;;;;;10.30;7.05;;;0.80;99.90;;;;;;5153517;27;20480;-95
2024/01/17 01:58:14;;;;;;;10.70;7.45;;;1.10;99.90;;;;;;5151934;27;20403;-95
2024/01/17 02:00:40;;;;;;;10.95;6.85;;;0.80;99.90;;;;;;5133167;27;20556;-96
2024/01/17 02:03:06;;;;;;;13.10;7.63;;;0.80;99.90;;;;;;5133606;27;20436;-93
2024/01/17 02:05:31;;;;;;;11.98;7.65;;;0.80;99.90;;;;;;5134476;27;20416;-95
2024/01/17 02:07:59;;;;;;;10.47;7.47;;;0.80;99.90;;;;;;5134161;27;20404;-94
2024/01/17 02:10:25;;;;;;;11.35;6.72;;;0.90;99.90;;;;;;5135415;27;20444;-94
2024/01/17 02:12:59;;;;;;;9.98;6.78;;;0.80;99.90;;;;;;5132622;27;20401;-94
2024/01/17 02:15:25;;;;;;;10.93;7.80;;;0.70;99.90;;;;;;5134495;27;20837;-92
2024/01/17 02:17:51;;;;;;;12.13;7.97;;;0.80;99.90;;;;;;5133169;27;20747;-90
2024/01/17 02:20:17;;;;;;;12.23;7.73;;;0.80;99.90;;;;;;5133428;27;20420;-94
2024/01/17 02:22:43;;;;;;;11.02;7.38;;;0.70;99.90;;;;;;5133505;27;20928;-94
2024/01/17 02:25:08;;;;;;;11.93;7.93;;;0.70;99.90;;;;;;5132755;27;20494;-95
2024/01/17 02:27:35;;;;;;;11.98;7.72;;;0.70;99.90;;;;;;5122561;27;20402;-94
2024/01/17 02:30:01;;;;;;;13.05;7.53;;;0.70;99.90;;;;;;5111681;27;20416;-94
2024/01/17 02:32:27;;;;;;;12.90;7.28;;;0.80;99.90;;;;;;5112884;27;21172;-94
2024/01/17 02:34:53;;;;;;;10.93;7.67;;;0.70;99.90;;;;;;5112480;27;20398;-92
2024/01/17 02:37:18;;;;;;;10.97;8.10;;;0.80;99.90;;;;;;5113120;27;20459;-93
2024/01/17 02:39:44;;;;;;;11.80;8.23;;;0.70;99.90;;;;;;5112070;27;20450;-94
2024/01/17 02:42:10;;;;;;;12.73;8.83;;;0.70;99.90;;;;;;5135859;27;20433;-94
2024/01/17 02:44:35;;;;;;;12.43;8.80;;;0.60;99.90;;;;;;5133123;27;20494;-92
2024/01/17 02:47:01;;;;;;;12.43;8.65;;;0.80;99.90;;;;;;5132446;27;20397;-93
2024/01/17 02:49:27;;;;;;;12.57;8.40;;;0.70;99.90;;;;;;5133992;27;20884;-92
2024/01/17 02:51:52;;;;;;;12.63;8.80;;;0.80;99.90;;;;;;5131776;27;20404;-95
2024/01/17 02:54:24;;;;;;;12.90;8.57;;;0.70;99.90;;;;;;5133915;27;20401;-95
2024/01/17 02:56:50;;;;;;;11.90;8.82;;;0.80;99.90;;;;;;5132725;27;20428;-93
2024/01/17 02:59:16;;;;;;;12.17;9.20;;;0.70;99.90;;;;;;5132248;27;20458;-94
2024/01/17 03:01:43;;;;;;;12.15;9.02;;;0.70;99.90;;;;;;5131906;27;20397;-93
2024/01/17 03:04:08;;;;;;;13.45;9.18;;;0.70;99.90;;;;;;5132978;27;20399;-96
2024/01/17 03:06:34;;;;;;;12.68;9.73;;;0.60;99.90;;;;;;5133050;27;20951;-92
2024/01/17 03:09:00;;;;;;;12.90;9.82;;;0.70;99.90;;;;;;5128109;27;20426;-95
2024/01/17 03:11:26;;;;;;;14.48;9.57;;;0.80;99.90;;;;;;5112309;27;20405;-94
2024/01/17 03:13:51;;;;;;;13.90;9.43;;;0.70;99.90;;;;;;5111058;27;20757;-95
2024/01/17 03:16:19;;;;;;;13.97;9.80;;;0.70;99.90;;;;;;5112599;27;20897;-93
2024/01/17 03:18:45;;;;;;;12.05;10.05;;;0.90;99.90;;;;;;5111009;27;20410;-92
2024/01/17 03:21:12;;;;;;;13.35;10.07;;;0.70;99.90;;;;;;5111352;27;20551;-95
2024/01/17 03:23:38;;;;;;;13.73;10.40;;;0.60;99.90;;;;;;5128909;27;20491;-94
2024/01/17 03:26:03;;;;;;;14.00;9.93;;;0.70;99.90;;;;;;5111222;27;20889;-92
2024/01/17 03:28:29;;;;;;;14.48;10.27;;;0.60;99.90;;;;;;5112074;27;20406;-94
2024/01/17 03:30:55;;;;;;;16.98;10.48;;;0.60;99.90;;;;;;5121934;27;20401;-95
2024/01/17 03:33:20;;;;;;;13.32;10.23;;;0.60;99.90;;;;;;5132266;27;20401;-94
2024/01/17 03:35:46;;;;;;;14.43;10.27;;;0.60;99.90;;;;;;5130865;27;20792;-94
2024/01/17 03:38:12;;;;;;;14.27;10.80;;;0.60;99.90;;;;;;5132607;27;20408;-95
2024/01/17 03:40:38;;;;;;;13.73;10.48;;;0.60;99.90;;;;;;5148804;27;20495;-92
2024/01/17 03:43:04;;;;;;;14.05;10.25;;;0.70;99.90;;;;;;5149584;27;20952;-94
2024/01/17 03:45:29;;;;;;;15.70;11.23;;;0.70;99.90;;;;;;5131421;27;20425;-94
2024/01/17 03:47:55;;;;;;;12.10;10.70;;;0.50;99.90;;;;;;5130781;27;20884;-91
2024/01/17 03:50:21;;;;;;;16.23;11.17;;;0.50;99.90;;;;;;5133162;27;20401;-93
2024/01/17 03:52:47;;;;;;;14.07;10.82;;;0.50;99.90;;;;;;5162066;22;20446;-94
2024/01/17 03:55:13;;;;;;;14.75;10.82;;;0.50;99.90;;;;;;5014580;28;20765;-94
2024/01/17 03:57:39;;;;;;;15.07;11.10;;;0.60;99.90;;;;;;5015038;28;20409;-94
2024/01/17 04:00:06;;;;;;;14.40;11.30;;;0.50;99.90;;;;;;5013112;28;20441;-93
2024/01/17 04:02:31;;;;;;;15.52;11.43;;;0.50;99.90;;;;;;5015470;28;20486;-95
2024/01/17 04:04:57;;;;;;;16.33;11.53;;;0.50;99.90;;;;;;5012531;28;20406;-92
2024/01/17 04:07:25;;;;;;;16.60;11.63;;;0.50;99.90;;;;;;5014527;28;20401;-95
2024/01/17 04:09:51;;;;;;;15.63;11.57;;;0.50;99.90;;;;;;5002880;28;20445;-94
2024/01/17 04:12:20;;;;;;;16.90;11.93;;;0.50;99.90;;;;;;5013955;28;20817;-95
2024/01/17 04:14:46;;;;;;;15.57;11.93;;;0.40;99.90;;;;;;5013758;28;20507;-94
2024/01/17 04:17:12;;;;;;;16.50;12.13;;;0.50;99.90;;;;;;5013102;28;20928;-95
2024/01/17 04:19:37;;;;;;;16.30;12.15;;;0.60;99.90;;;;;;5014108;28;20437;-93
2024/01/17 04:22:03;;;;;;;16.13;11.93;;;0.50;99.90;;;;;;5011957;28;20740;-95
2024/01/17 04:24:29;;;;;;;15.95;11.65;;;0.40;99.90;;;;;;5014721;28;20436;-94
2024/01/17 04:26:55;;;;;;;19.48;12.07;;;0.70;99.90;;;;;;5012257;28;20412;-95
2024/01/17 04:29:22;;;;;;;15.32;11.88;;;0.60;99.90;;;;;;5014631;28;20432;-94
2024/01/17 04:31:48;;;;;;;14.73;11.33;;;0.70;99.90;;;;;;5012311;28;20437;-94
2024/01/17 04:34:14;;;;;;;15.80;11.52;;;0.60;99.90;;;;;;5014641;28;20502;-95
2024/01/17 04:36:40;;;;;;;16.20;12.15;;;0.60;99.90;;;;;;5011732;28;20974;-94
2024/01/17 04:39:05;;;;;;;15.57;12.10;;;0.60;99.90;;;;;;5009920;28;20403;-94
2024/01/17 04:41:36;;;;;;;16.55;12.68;;;0.60;99.90;;;;;;5011726;28;20435;-95
2024/01/17 04:44:05;;;;;;;17.48;12.38;;;0.60;99.90;;;;;;5009062;28;20415;-94
2024/01/17 04:46:31;;;;;;;16.85;12.65;;;0.60;99.90;;;;;;5011176;28;20414;-94
2024/01/17 04:48:57;;;;;;;16.50;12.82;;;0.60;99.90;;;;;;5008966;28;20423;-94
2024/01/17 04:51:24;;;;;;;16.67;12.13;;;0.50;99.90;;;;;;5011352;28;21109;-94
2024/01/17 04:53:49;;;;;;;17.00;12.98;;;0.60;99.90;;;;;;5009450;28;20411;-93
2024/01/17 04:56:15;;;;;;;16.10;12.50;;;0.60;99.90;;;;;;5010145;28;20921;-94
2024/01/17 04:58:43;;;;;;;16.00;12.32;;;0.40;99.90;;;;;;5010774;28;20415;-93
2024/01/17 05:01:09;;;;;;;17.13;11.90;;;0.50;99.90;;;;;;5008687;28;20818;-92
2024/01/17 05:03:35;;;;;;;16.70;12.55;;;0.50;99.90;;;;;;5011987;28;20493;-91
2024/01/17 05:06:02;;;;;;;15.48;12.15;;;0.40;99.90;;;;;;5009064;28;20438;-91
2024/01/17 05:08:28;;;;;;;15.15;11.70;;;0.70;99.90;;;;;;5011005;28;20415;-92
2024/01/17 05:10:55;;;;;;;18.45;12.20;;;0.50;99.90;;;;;;5009565;28;20399;-93
2024/01/17 05:13:21;;;;;;;16.48;12.63;;;0.40;99.90;;;;;;5013551;28;20401;-92
2024/01/17 05:15:48;;;;;;;15.45;12.18;;;0.30;99.90;;;;;;5013395;28;20439;-94
2024/01/17 05:18:13;;;;;;;17.85;12.48;;;0.40;99.90;;;;;;5012312;28;20543;-92
2024/01/17 05:20:39;;;;;;;15.23;12.67;;;0.40;99.90;;;;;;5013658;28;20524;-93
2024/01/17 05:23:05;;;;;;;16.40;12.87;;;0.40;99.90;;;;;;5008893;28;20421;-91
2024/01/17 05:25:32;;;;;;;15.67;11.77;;;0.40;99.90;;;;;;5014603;28;20796;-94
2024/01/17 05:27:58;;;;;;;17.70;12.97;;;0.50;99.90;;;;;;5013647;28;20465;-95
2024/01/17 05:30:24;;;;;;;14.90;12.53;;;0.40;99.90;;;;;;5017437;28;20815;-92
2024/01/17 05:32:51;;;;;;;17.42;12.40;;;0.40;99.90;;;;;;5015854;28;20459;-93
2024/01/17 05:35:17;;;;;;;16.15;12.35;;;0.40;99.90;;;;;;5013359;28;20494;-93
2024/01/17 05:37:43;;;;;;;15.48;12.63;;;0.40;99.90;;;;;;5015722;28;20450;-92
2024/01/17 05:40:15;;;;;;;18.25;12.98;;;0.70;99.90;;;;;;5015507;28;20486;-91
2024/01/17 05:42:43;;;;;;;16.38;12.50;;;0.40;99.90;;;;;;5018176;28;20447;-92
2024/01/17 05:45:09;;;;;;;17.58;13.30;;;0.30;99.90;;;;;;5015236;28;20761;-93
2024/01/17 05:47:35;;;;;;;15.23;12.73;;;0.40;99.90;;;;;;5017356;28;20807;-93
2024/01/17 05:50:03;;;;;;;16.17;12.95;;;0.30;99.90;;;;;;5015653;28;20444;-92
2024/01/17 05:52:30;;;;;;;17.45;13.13;;;0.20;99.90;;;;;;5016460;28;20405;-93
2024/01/17 05:54:56;;;;;;;18.02;13.00;;;0.20;99.90;;;;;;5016488;28;20785;-93
2024/01/17 05:57:22;;;;;;;17.35;12.93;;;0.20;99.90;;;;;;5014934;28;20405;-92
2024/01/17 05:59:48;;;;;;;18.42;13.90;;;0.20;99.90;;;;;;5016967;28;20997;-93
2024/01/17 06:02:14;;;;;;;18.58;13.98;;;0.10;99.90;;;;;;5014940;28;20768;-95
2024/01/17 06:04:40;;;;;;;18.77;13.50;;;0.10;99.90;;;;;;5033516;28;20511;-92
2024/01/17 06:07:06;;;;;;;20.00;13.02;;;0.30;99.90;;;;;;5015019;28;20401;-94
2024/01/17 06:09:32;;;;;;;17.98;13.45;;;0.20;99.90;;;;;;5016707;28;20417;-93
2024/01/17 06:11:58;;;;;;;17.52;13.20;;;-0.10;99.90;;;;;;5015775;28;20408;-96
2024/01/17 06:14:24;;;;;;;17.67;13.75;;;0.00;99.90;;;;;;5019585;28;20425;-96
2024/01/17 06:16:50;;;;;;;20.55;14.40;;;-0.10;99.90;;;;;;5018931;28;20417;-95
2024/01/17 06:19:16;;;;;;;19.52;13.98;;;0.30;99.90;;;;;;5015254;28;21018;-96
2024/01/17 06:21:42;;;;;;;18.57;13.80;;;0.00;99.90;;;;;;5017194;28;20647;-94
2024/01/17 06:24:08;;;;;;;17.77;13.40;;;0.10;99.90;;;;;;5091366;23;20464;-93
2024/01/17 06:26:34;;;;;;;20.00;14.67;;;0.00;99.90;;;;;;5071094;28;20413;-93
2024/01/17 06:28:59;;;;;;;18.93;13.90;;;-0.10;99.90;;;;;;5073099;28;20881;-93
2024/01/17 06:31:25;;;;;;;17.98;14.15;;;-0.10;99.90;;;;;;5072252;28;20402;-93
2024/01/17 06:33:52;;;;;;;19.60;13.80;;;-0.10;99.90;;;;;;5071689;28;20817;-95
2024/01/17 06:36:18;;;;;;;18.95;13.85;;;-0.10;99.90;;;;;;5071855;28;21205;-94
2024/01/17 06:38:44;;;;;;;18.00;12.90;;;-0.10;99.90;;;;;;5070981;28;20406;-93
2024/01/17 06:41:10;;;;;;;18.17;14.38;;;0.10;99.90;;;;;;5072971;28;20500;-93
2024/01/17 06:43:36;;;;;;;19.30;13.90;;;0.00;99.90;;;;;;5071801;28;20406;-92
2024/01/17 06:46:02;;;;;;;18.42;13.88;;;-0.20;99.90;;;;;;5072998;28;20409;-93
2024/01/17 06:48:28;;;;;;;17.48;13.55;;;0.00;99.90;;;;;;5071529;28;20427;-90
2024/01/17 06:50:54;;;;;;;19.27;13.53;;;0.00;99.90;;;;;;5072567;28;20777;-95
2024/01/17 06:53:21;;;;;;;17.50;12.73;;;0.10;99.90;;;;;;5072503;28;20764;-94
2024/01/17 06:55:47;;;;;;;20.10;14.03;;;-0.20;99.90;;;;;;5071113;28;20412;-90
2024/01/17 06:58:15;;;;;;;17.38;13.45;;;0.30;99.90;;;;;;5072217;28;20843;-92
2024/01/17 07:00:42;;;;;;;16.50;13.07;;;-0.20;99.90;;;;;;5070502;28;20440;-95
2024/01/17 07:03:07;;;;;;;17.08;13.20;;;-0.10;99.90;;;;;;5073157;28;20420;-94
2024/01/17 07:05:33;;;;;;;17.40;12.88;;;-0.10;99.90;;;;;;5070765;28;20429;-92
2024/01/17 07:07:59;;;;;;;18.92;13.13;;;-0.20;99.90;;;;;;5072325;28;20398;-91
2024/01/17 07:10:25;;;;;;;16.53;13.30;;;-0.10;99.90;;;;;;5071929;28;20402;-93
2024/01/17 07:12:53;;;;;;;17.27;13.37;;;-0.20;99.90;;;;;;5071259;28;20508;-93
2024/01/17 07:15:19;;;;;;;18.70;13.40;;;-0.20;99.90;;;;;;5072042;28;20406;-93
2024/01/17 07:17:45;;;;;;;17.85;13.13;;;-0.40;99.90;;;;;;5070462;28;20406;-93
2024/01/17 07:20:12;;;;;;;17.10;13.10;;;-0.20;99.90;;;;;;5072487;28;20429;-95
2024/01/17 07:22:41;;;;;;;18.13;13.70;;;-0.30;99.90;;;;;;5070378;28;20410;-94
2024/01/17 07:25:10;;;;;;;18.42;13.70;;;-0.30;99.90;;;;;;5072357;28;20414;-93
2024/01/17 07:27:38;;;;;;;17.53;13.77;;;-0.30;99.90;;;;;;5070991;28;20414;-93
2024/01/17 07:30:05;;;;;;;17.23;13.20;;;-0.40;99.90;;;;;;5071200;28;20406;-93
2024/01/17 07:32:31;;;;;;;18.98;13.30;;;-0.40;99.90;;;;;;5072218;28;20444;-94
2024/01/17 07:34:57;;;;;;;15.32;12.13;;;-0.40;99.90;;;;;;5069958;28;21011;-93
2024/01/17 07:37:22;;;;;;;16.20;12.65;;;-0.40;99.90;;;;;;5071638;28;20394;-94
2024/01/17 07:39:48;;;;;;;17.20;12.77;;;-0.50;99.90;;;;;;5069811;28;20422;-94
2024/01/17 07:42:18;;;;;;;18.60;13.18;;;-0.40;99.90;;;;;;5071933;28;20410;-94
2024/01/17 07:44:47;;;;;;;17.23;12.13;;;-0.50;99.90;;;;;;5069681;28;20454;-94
2024/01/17 07:47:12;;;;;;;15.75;11.95;;;-0.40;99.90;;;;;;5070541;28;20414;-94
2024/01/17 07:49:39;;;;;;;16.13;12.02;;;-0.50;99.90;;;;;;5070781;28;20764;-94
2024/01/17 07:52:05;;;;;;;16.08;11.77;;;-0.40;99.90;;;;;;5069652;28;20406;-93
2024/01/17 07:54:34;;;;;;;15.88;10.65;;;-0.60;99.90;;;;;;5071124;28;20405;-93
2024/01/17 07:57:00;;;;;;;17.20;11.52;;;-0.50;99.90;;;;;;5068625;28;20543;-95
2024/01/17 07:59:27;;;;;;;14.07;10.65;;;-0.50;99.90;;;;;;5071422;28;20481;-93
2024/01/17 08:01:54;;;;;;;16.65;11.32;;;-0.40;99.90;;;;;;5069149;28;20394;-94
2024/01/17 08:04:20;;;;;;;15.60;11.50;;;-0.40;99.90;;;;;;5070969;28;20506;-93
2024/01/17 08:06:46;;;;;;;15.97;10.80;;;-0.50;99.90;;;;;;5072319;28;20421;-94
2024/01/17 08:09:21;;;;;;;14.82;10.60;;;-0.60;99.90;;;;;;5069832;28;20406;-93
2024/01/17 08:11:48;;;;;;;14.63;11.95;;;-0.40;99.90;;;;;;5071611;28;20769;-94
2024/01/17 08:14:14;;;;;;;15.20;11.65;;;-0.10;99.90;;;;;;5069021;28;21034;-94
2024/01/17 08:16:40;;;;;;;16.08;11.05;;;-0.30;99.90;;;;;;5070948;28;20391;-93
2024/01/17 08:19:06;;;;;;;15.23;11.75;;;-0.30;99.90;;;;;;5068662;28;20463;-94
2024/01/17 08:21:34;;;;;;;15.35;11.48;;;-0.30;99.90;;;;;;5071152;28;20436;-94
2024/01/17 08:24:00;;;;;;;15.48;11.32;;;-0.20;99.90;;;;;;5065725;28;20429;-93
2024/01/17 08:26:26;;;;;;;15.60;11.60;;;-0.20;99.90;;;;;;5074182;28;20408;-93
2024/01/17 08:28:52;;;;;;;15.05;11.27;;;-0.30;99.90;;;;;;5071322;28;20413;-93
2024/01/17 08:31:17;;;;;;;15.20;11.30;;;-0.30;99.90;;;;;;5058128;28;20410;-93
2024/01/17 08:33:46;;;;;;;14.05;11.35;;;0.00;99.90;;;;;;5071145;28;20405;-93
2024/01/17 08:36:14;;;;;;;17.63;13.13;;;0.10;99.90;;;;;;5065175;28;20968;-93
2024/01/17 08:38:40;;;;;;;14.00;10.90;;;0.00;99.90;;;;;;5070802;28;20445;-94
2024/01/17 08:41:07;;;;;;;17.30;12.10;;;-0.10;99.90;;;;;;5068759;28;20487;-94
2024/01/17 08:43:32;;;;;;;16.02;11.88;;;-0.10;99.90;;;;;;5069779;28;20402;-95
2024/01/17 08:46:00;;;;;;;15.73;11.03;;;0.10;99.90;;;;;;5079458;28;20411;-94
2024/01/17 08:48:26;;;;;;;14.97;11.37;;;-0.10;99.90;;;;;;5088098;28;20409;-94
2024/01/17 08:50:52;;;;;;;14.93;11.07;;;0.10;99.90;;;;;;5091004;28;21056;-94
2024/01/17 08:53:17;;;;;;;15.33;11.47;;;0.10;99.90;;;;;;5088108;28;20411;-92
2024/01/17 08:55:43;;;;;;;17.37;11.80;;;0.00;99.90;;;;;;5072453;28;20468;-94
2024/01/17 08:58:09;;;;;;;13.85;11.68;;;0.10;99.90;;;;;;5067886;28;20405;-93
2024/01/17 09:00:34;;;;;;;12.95;11.13;;;0.20;99.90;;;;;;5070441;28;20457;-95
2024/01/17 09:03:00;;;;;;;15.63;11.63;;;0.20;99.90;;;;;;5068313;28;20398;-93
2024/01/17 09:05:25;;;;;;;16.03;11.73;;;0.30;99.90;;;;;;5068427;28;20421;-92
2024/01/17 09:07:52;;;;;;;15.30;11.63;;;0.30;99.90;;;;;;5070509;28;20481;-92
2024/01/17 09:10:19;;;;;;;16.98;11.82;;;0.20;99.90;;;;;;5067692;28;20402;-93
2024/01/17 09:12:45;;;;;;;15.10;10.27;;;0.40;99.90;;;;;;5070723;28;20983;-93
2024/01/17 09:15:11;;;;;;;15.57;10.73;;;0.40;99.90;;;;;;5070095;28;20489;-92
2024/01/17 09:17:36;;;;;;;16.23;10.75;;;0.30;99.90;;;;;;5085594;28;20395;-92
2024/01/17 09:20:06;;;;;;;14.02;10.25;;;0.40;99.90;;;;;;5061609;28;20940;-92
2024/01/17 09:22:32;;;;;;;12.73;10.27;;;0.40;99.90;;;;;;5049684;28;20469;-93
2024/01/17 09:25:01;;;;;;;13.75;10.30;;;0.50;99.90;;;;;;5049955;28;20899;-93
2024/01/17 09:27:29;;;;;;;14.27;10.27;;;0.50;99.90;;;;;;5048611;28;20419;-94
2024/01/17 09:29:56;;;;;;;14.40;10.38;;;0.30;99.90;;;;;;5049682;28;20419;-93
2024/01/17 09:32:22;;;;;;;13.25;10.00;;;0.30;99.90;;;;;;5048090;28;20442;-95
2024/01/17 09:34:47;;;;;;;14.57;9.85;;;0.50;99.90;;;;;;5051050;28;20403;-93
2024/01/17 09:37:17;;;;;;;14.35;9.90;;;0.50;99.90;;;;;;5048587;28;20414;-92
2024/01/17 09:39:45;;;;;;;13.05;10.18;;;0.50;99.90;;;;;;5049915;28;20470;-93
2024/01/17 09:42:14;;;;;;;12.95;10.27;;;0.50;99.90;;;;;;5049755;28;20400;-93
2024/01/17 09:44:40;;;;;;;14.82;10.85;;;0.60;99.90;;;;;;5047579;28;20407;-93
2024/01/17 09:47:08;;;;;;;13.63;10.27;;;0.60;99.90;;;;;;5050365;28;20404;-94
2024/01/17 09:49:34;;;;;;;13.55;10.00;;;0.50;99.90;;;;;;5047525;28;20740;-94
2024/01/17 09:52:06;;;;;;;14.07;10.13;;;0.90;99.90;;;;;;5050063;28;20407;-94
2024/01/17 09:54:36;;;;;;;13.20;10.70;;;0.70;99.90;;;;;;5048101;28;20509;-93
2024/01/17 09:57:09;;;;;;;12.80;9.35;;;0.60;99.90;;;;;;5049264;28;20407;-94
2024/01/17 09:59:55;;;;;;;12.43;9.70;;;0.60;99.90;;;;;;5049674;28;20451;-93
2024/01/17 10:02:21;;;;;;;13.57;9.25;;;0.70;99.90;;;;;;5048588;28;20608;-94
2024/01/17 10:04:48;;;;;;;13.77;10.00;;;0.80;99.90;;;;;;5050384;28;20410;-93
2024/01/17 10:07:14;;;;;;;13.93;9.85;;;0.50;99.90;;;;;;5047010;28;20794;-95
2024/01/17 10:09:40;;;;;;;13.50;9.68;;;0.70;99.90;;;;;;5051211;28;20430;-94
2024/01/17 10:12:07;;;;;;;11.73;9.43;;;0.70;99.90;;;;;;5052251;28;20793;-94
2024/01/17 10:14:33;;;;;;;14.10;9.20;;;0.70;99.90;;;;;;5052082;28;20415;-93
2024/01/17 10:16:59;;;;;;;13.40;9.63;;;0.70;99.90;;;;;;5053045;28;20804;-95
2024/01/17 10:19:25;;;;;;;13.17;9.50;;;0.70;99.90;;;;;;5065829;28;20493;-93
2024/01/17 10:21:51;;;;;;;11.15;8.70;;;0.70;99.90;;;;;;5073098;28;20433;-93
2024/01/17 10:24:16;;;;;;;13.60;9.10;;;0.80;99.90;;;;;;5070292;28;20463;-93
2024/01/17 10:26:43;;;;;;;11.48;9.02;;;0.70;99.90;;;;;;5073441;28;20406;-94
2024/01/17 10:29:12;;;;;;;11.60;9.38;;;0.80;99.90;;;;;;5070892;28;20402;-94
2024/01/17 10:31:39;;;;;;;12.80;9.23;;;0.80;99.90;;;;;;5072578;28;20410;-94
2024/01/17 10:34:05;;;;;;;13.35;10.20;;;0.90;99.90;;;;;;5072743;28;20455;-93
2024/01/17 10:36:30;;;;;;;12.45;9.70;;;0.90;99.90;;;;;;5071284;28;20406;-94
2024/01/17 10:39:06;;;;;;;15.48;9.90;;;1.00;99.90;;;;;;5072360;28;20402;-93
2024/01/17 10:41:49;;;;;;;12.85;10.15;;;1.10;99.90;;;;;;5052657;28;20431;-93
2024/01/17 10:44:18;;;;;;;13.23;9.88;;;1.10;99.90;;;;;;5072385;28;20497;-94
2024/01/17 10:46:46;;;;;;;12.83;10.27;;;1.10;99.90;;;;;;5071079;28;20408;-95
2024/01/17 10:49:12;;;;;;;12.25;8.90;;;1.10;99.90;;;;;;5070879;28;20493;-93
2024/01/17 10:51:40;;;;;;;13.20;8.73;;;1.20;99.90;;;;;;5072451;28;20557;-93
2024/01/17 10:54:09;;;;;;;12.95;9.48;;;1.20;99.90;;;;;;5069960;28;20583;-94
2024/01/17 10:56:37;;;;;;;12.68;9.60;;;1.30;99.90;;;;;;5072672;28;20394;-92
2024/01/17 10:59:05;;;;;;;14.63;9.60;;;1.20;99.90;;;;;;5070133;28;20917;-94
2024/01/17 11:01:42;;;;;;;13.18;9.55;;;1.20;99.90;;;;;;5072280;28;20425;-94
2024/01/17 11:04:16;;;;;;;12.10;9.52;;;1.20;99.90;;;;;;5071067;28;20768;-93
2024/01/17 11:06:43;;;;;;;12.82;9.90;;;1.20;99.90;;;;;;5070534;28;20398;-94
2024/01/17 11:09:10;;;;;;;11.27;9.65;;;1.20;99.90;;;;;;5072383;28;20881;-94
2024/01/17 11:11:42;;;;;;;11.97;9.50;;;1.20;99.90;;;;;;5069919;28;20824;-93
2024/01/17 11:14:09;;;;;;;12.63;9.38;;;1.20;99.90;;;;;;5072471;28;20409;-93
2024/01/17 11:16:36;;;;;;;14.23;9.15;;;1.40;99.90;;;;;;5070590;28;20493;-93
2024/01/17 11:19:03;;;;;;;12.38;8.90;;;1.20;99.90;;;;;;5072048;28;20394;-93
2024/01/17 11:21:31;;;;;;;11.48;9.13;;;1.20;99.90;;;;;;5069986;28;20425;-94
2024/01/17 11:24:00;;;;;;;13.38;9.70;;;1.30;99.90;;;;;;5069925;28;20413;-95
2024/01/17 11:26:55;;;;;;;11.80;8.90;;;1.10;99.90;;;;;;5071650;28;20406;-95
2024/01/17 11:29:20;;;;;;;12.75;9.25;;;1.10;99.90;;;;;;5066148;28;20414;-93
2024/01/17 11:31:55;;;;;;;12.40;9.80;;;1.20;99.90;;;;;;5071635;28;20421;-94
2024/01/17 11:34:21;;;;;;;15.40;9.60;;;1.30;99.90;;;;;;5071158;28;20887;-93
2024/01/17 11:36:47;;;;;;;14.23;10.00;;;1.10;99.90;;;;;;5070958;28;20428;-94
2024/01/17 11:39:17;;;;;;;13.75;10.02;;;1.20;99.90;;;;;;5071784;28;20414;-92
2024/01/17 11:41:45;;;;;;;12.57;10.38;;;1.20;99.90;;;;;;5069127;28;20428;-94
2024/01/17 11:44:12;;;;;;;13.77;10.60;;;1.20;99.90;;;;;;5071740;28;20402;-93
2024/01/17 11:46:38;;;;;;;15.05;11.00;;;1.10;99.90;;;;;;5068982;28;20464;-93
2024/01/17 11:49:09;;;;;;;14.70;11.02;;;0.90;99.90;;;;;;5071630;28;20798;-93
2024/01/17 11:51:36;;;;;;;15.82;11.93;;;1.30;99.90;;;;;;5070211;28;20398;-94
2024/01/17 11:54:05;;;;;;;15.23;11.27;;;1.20;99.90;;;;;;5070204;28;20410;-93
2024/01/17 11:56:31;;;;;;;15.05;12.07;;;1.20;99.90;;;;;;5071379;28;20810;-93
2024/01/17 11:59:09;;;;;;;15.57;12.27;;;1.10;99.90;;;;;;5069179;28;20502;-92
2024/01/17 12:01:34;;;;;;;13.82;11.48;;;1.20;99.90;;;;;;5071162;28;20426;-93
2024/01/17 12:04:09;;;;;;;12.90;11.02;;;1.20;99.90;;;;;;5068584;28;20409;-95
2024/01/17 12:06:36;;;;;;;15.02;11.40;;;1.10;99.90;;;;;;5071080;28;20406;-92
2024/01/17 12:09:05;;;;;;;15.57;11.27;;;1.10;99.90;;;;;;5074007;28;20404;-93
2024/01/17 12:11:31;;;;;;;13.85;11.45;;;1.20;99.90;;;;;;5089975;28;20461;-93
2024/01/17 12:13:57;;;;;;;14.77;10.67;;;1.20;99.90;;;;;;5092874;28;21102;-95
2024/01/17 12:16:23;;;;;;;14.65;10.60;;;1.10;99.90;;;;;;5089419;28;20465;-92
2024/01/17 12:18:59;;;;;;;12.52;10.00;;;1.20;99.90;;;;;;5091422;28;20404;-92
2024/01/17 12:21:25;;;;;;;12.52;10.10;;;1.50;99.90;;;;;;5088807;28;20429;-93
2024/01/17 12:23:50;;;;;;;12.23;10.65;;;1.30;99.90;;;;;;5091102;28;20406;-94
2024/01/17 12:26:16;;;;;;;13.38;10.68;;;1.40;99.90;;;;;;5089294;28;20400;-93
2024/01/17 12:28:42;;;;;;;14.93;11.68;;;1.40;99.90;;;;;;5089907;28;20405;-94
2024/01/17 12:31:08;;;;;;;15.40;10.88;;;1.50;99.90;;;;;;5090745;28;20429;-93
2024/01/17 12:33:35;;;;;;;15.15;10.85;;;1.50;99.90;;;;;;5087438;28;20396;-93
2024/01/17 12:36:03;;;;;;;14.32;10.82;;;1.60;99.90;;;;;;5091063;28;20401;-94
2024/01/17 12:38:35;;;;;;;12.53;10.30;;;1.50;99.90;;;;;;5088468;28;20516;-94